Time;durP1;ratioP1;P1;durP2;ratioP2;P2;SDS_P1;SDS_P2;PMS_P1;PMS_P2;Temp;Humidity;BMP_temperature;BMP_pressure;BME280_temperature;BME280_humidity;BME280_pressure;Samples;Min_cycle;Max_cycle;Signal;HPM_P1;HPM_P2
2023/12/29 00:01:40;;;;;;;12.10;5.60;;;;;;;2.04;100.00;100717.02;109240;1253;70690;-54
2023/12/29 00:04:08;;;;;;;8.80;4.80;;;;;;;2.09;100.00;100708.35;109195;1253;59748;-54
2023/12/29 00:06:41;;;;;;;10.90;5.10;;;;;;;2.15;100.00;100703.45;109329;1253;61061;-54
2023/12/29 00:09:23;;;;;;;8.80;5.10;;;;;;;2.17;100.00;100695.79;109311;1253;74738;-54
2023/12/29 00:11:51;;;;;;;9.40;4.60;;;;;;;2.19;100.00;100694.41;109282;1253;65813;-54
2023/12/29 00:14:18;;;;;;;9.50;4.80;;;;;;;2.20;100.00;100689.67;109174;1253;72736;-55
2023/12/29 00:16:46;;;;;;;10.70;4.70;;;;;;;2.25;100.00;100685.06;109172;1256;60949;-53
2023/12/29 00:19:14;;;;;;;10.20;4.60;;;;;;;2.28;100.00;100678.82;109362;1253;60093;-54
2023/12/29 00:21:42;;;;;;;9.90;5.20;;;;;;;2.29;100.00;100670.98;109356;1253;73409;-54
2023/12/29 00:24:10;;;;;;;8.90;5.00;;;;;;;2.32;100.00;100663.56;109279;1253;67173;-56
2023/12/29 00:26:38;;;;;;;8.30;4.40;;;;;;;2.34;100.00;100650.06;109172;1253;72797;-54
2023/12/29 00:29:06;;;;;;;8.00;3.90;;;;;;;2.39;100.00;100645.56;109203;1256;59597;-54
2023/12/29 00:31:34;;;;;;;8.00;4.10;;;;;;;2.40;100.00;100640.09;109294;1253;60104;-54
2023/12/29 00:34:02;;;;;;;9.80;4.20;;;;;;;2.43;100.00;100634.75;109417;1253;74686;-54
2023/12/29 00:36:29;;;;;;;7.20;3.70;;;;;;;2.44;100.00;100618.67;109246;1253;65644;-54
2023/12/29 00:38:57;;;;;;;8.60;4.20;;;;;;;2.47;100.00;100610.77;109225;1253;73521;-54
2023/12/29 00:41:25;;;;;;;9.40;3.90;;;;;;;2.47;100.00;100603.02;109264;1253;59517;-54
2023/12/29 00:43:52;;;;;;;5.60;3.20;;;;;;;2.51;100.00;100601.88;109276;1253;60120;-54
2023/12/29 00:46:21;;;;;;;7.60;3.80;;;;;;;2.55;100.00;100596.71;109246;1253;74766;-54
2023/12/29 00:48:48;;;;;;;5.80;2.80;;;;;;;2.60;100.00;100592.40;109304;1253;66994;-54
2023/12/29 00:51:16;;;;;;;7.50;2.90;;;;;;;2.66;100.00;100591.06;109273;1253;72799;-54
2023/12/29 00:53:43;;;;;;;6.70;2.60;;;;;;;2.72;100.00;100582.50;109236;1253;59074;-54
2023/12/29 00:56:11;;;;;;;8.50;3.00;;;;;;;2.79;100.00;100581.73;109288;1253;60142;-54
2023/12/29 00:58:39;;;;;;;6.20;2.60;;;;;;;2.86;100.00;100578.61;109339;1253;75118;-54
2023/12/29 01:01:08;;;;;;;5.70;2.40;;;;;;;2.91;100.00;100571.87;109378;1253;66138;-54
2023/12/29 01:03:36;;;;;;;5.80;3.00;;;;;;;2.98;100.00;100563.58;109267;1253;72751;-54
2023/12/29 01:06:04;;;;;;;4.70;2.40;;;;;;;3.04;100.00;100559.46;109271;1253;58982;-54
2023/12/29 01:08:33;;;;;;;7.90;3.20;;;;;;;3.08;100.00;100550.20;109296;1253;60099;-54
2023/12/29 01:11:01;;;;;;;5.00;2.30;;;;;;;3.12;100.00;100536.13;109197;1253;74741;-54
2023/12/29 01:13:28;;;;;;;6.30;2.50;;;;;;;3.15;100.00;100533.95;109372;1253;65950;-53
2023/12/29 01:15:56;;;;;;;4.30;2.10;;;;;;;3.18;100.00;100529.08;109040;1253;71238;-54
2023/12/29 01:18:23;;;;;;;5.10;2.40;;;;;;;3.21;100.00;100521.78;109296;1253;59323;-55
2023/12/29 01:20:51;;;;;;;8.10;2.70;;;;;;;3.23;100.00;100519.75;109369;1253;60117;-54
2023/12/29 01:23:19;;;;;;;4.90;2.30;;;;;;;3.26;100.00;100524.99;109041;1253;74740;-54
2023/12/29 01:25:46;;;;;;;5.50;2.40;;;;;;;3.30;100.00;100517.63;109377;1253;66980;-54
2023/12/29 01:28:15;;;;;;;4.40;2.40;;;;;;;3.33;100.00;100518.52;109354;1253;72847;-54
2023/12/29 01:30:42;;;;;;;7.80;2.60;;;;;;;3.35;100.00;100512.17;109250;1253;59625;-55
2023/12/29 01:33:10;;;;;;;6.10;2.00;;;;;;;3.38;100.00;100501.61;109366;1253;58987;-54
2023/12/29 01:35:38;;;;;;;4.60;2.40;;;;;;;3.42;100.00;100494.24;109414;1253;74814;-54
2023/12/29 01:38:07;;;;;;;5.60;2.50;;;;;;;3.46;100.00;100492.06;109270;1253;66966;-54
2023/12/29 01:40:45;;;;;;;5.60;2.20;;;;;;;3.49;100.00;100482.81;109248;1256;72754;-56
2023/12/29 01:43:13;;;;;;;4.60;2.10;;;;;;;3.54;100.00;100473.14;109235;1253;60982;-54
2023/12/29 01:45:41;;;;;;;5.10;2.30;;;;;;;3.56;100.00;100467.64;109398;1253;60033;-54
2023/12/29 01:48:23;;;;;;;6.10;2.40;;;;;;;3.55;100.00;100462.86;109274;1253;73811;-54
2023/12/29 01:50:52;;;;;;;5.50;2.80;;;;;;;3.53;100.00;100458.23;109157;1253;65955;-54
2023/12/29 01:53:19;;;;;;;6.80;3.00;;;;;;;3.57;100.00;100457.03;109362;1254;72862;-54
2023/12/29 01:55:57;;;;;;;4.30;2.00;;;;;;;3.60;100.00;100448.69;109161;1253;60981;-54
2023/12/29 01:58:26;;;;;;;5.40;1.90;;;;;;;3.63;100.00;100442.44;109160;1253;59422;-54
2023/12/29 02:00:53;;;;;;;5.70;2.50;;;;;;;3.66;100.00;100446.12;109289;1253;73435;-54
2023/12/29 02:03:21;;;;;;;5.60;2.20;;;;;;;3.69;100.00;100445.36;109132;1253;67028;-54
2023/12/29 02:05:49;;;;;;;5.60;2.20;;;;;;;3.72;100.00;100440.48;109176;1253;72744;-54
2023/12/29 02:08:16;;;;;;;4.50;2.00;;;;;;;3.74;100.00;100440.29;109133;1253;59307;-54
2023/12/29 02:10:44;;;;;;;5.40;2.30;;;;;;;3.78;100.00;100435.35;109158;1253;59563;-53
2023/12/29 02:13:13;;;;;;;5.90;2.20;;;;;;;3.81;100.00;100426.80;109296;1257;74734;-54
2023/12/29 02:15:41;;;;;;;3.70;1.60;;;;;;;3.82;100.00;100425.30;109385;1253;64640;-54
2023/12/29 02:18:11;;;;;;;6.40;1.90;;;;;;;3.83;100.00;100427.11;109310;1253;71710;-54
2023/12/29 02:20:40;;;;;;;5.40;2.50;;;;;;;3.85;100.00;100430.06;108917;1253;59045;-55
2023/12/29 02:23:08;;;;;;;6.20;2.10;;;;;;;3.84;100.00;100431.45;109251;1255;58902;-54
2023/12/29 02:25:35;;;;;;;4.90;2.30;;;;;;;3.86;100.00;100430.33;109223;1253;74180;-54
2023/12/29 02:28:19;;;;;;;4.20;2.00;;;;;;;3.86;100.00;100436.33;109379;1253;65845;-54
2023/12/29 02:30:51;;;;;;;5.80;2.20;;;;;;;3.86;100.00;100430.94;109098;1253;72725;-54
2023/12/29 02:33:20;;;;;;;4.70;1.90;;;;;;;3.86;100.00;100428.05;109273;1253;59347;-54
2023/12/29 02:35:49;;;;;;;4.70;2.30;;;;;;;3.85;100.00;100428.33;109156;1253;59132;-54
2023/12/29 02:38:16;;;;;;;4.50;2.10;;;;;;;3.84;100.00;100421.16;109042;1253;74693;-56
2023/12/29 02:40:44;;;;;;;7.70;2.70;;;;;;;3.83;100.00;100413.05;109279;1253;66203;-54
2023/12/29 02:43:12;;;;;;;4.40;2.00;;;;;;;3.82;100.00;100409.15;109069;1253;72667;-54
2023/12/29 02:45:40;;;;;;;5.20;2.30;;;;;;;3.81;100.00;100410.77;109354;1253;60173;-54
2023/12/29 02:48:07;;;;;;;6.30;2.60;;;;;;;3.81;100.00;100409.89;109271;1253;58995;-54
2023/12/29 02:50:35;;;;;;;5.40;2.30;;;;;;;3.81;100.00;100405.14;109303;1253;73067;-54
2023/12/29 02:53:04;;;;;;;6.00;2.30;;;;;;;3.78;100.00;100399.16;109301;1253;65771;-53
2023/12/29 02:55:31;;;;;;;5.00;1.80;;;;;;;3.79;100.00;100402.55;109322;1253;71427;-54
2023/12/29 02:57:59;;;;;;;5.40;2.10;;;;;;;3.81;100.00;100401.38;109358;1253;59639;-54
2023/12/29 03:00:28;;;;;;;6.10;2.40;;;;;;;3.81;100.00;100405.86;109009;1253;173928;-54
2023/12/29 03:02:55;;;;;;;6.40;2.20;;;;;;;3.80;100.00;100400.59;109400;1253;73741;-55
2023/12/29 03:05:23;;;;;;;7.90;2.30;;;;;;;3.80;100.00;100399.34;109279;1253;67151;-54
2023/12/29 03:07:51;;;;;;;6.50;2.50;;;;;;;3.79;100.00;100390.84;109381;1253;71403;-54
2023/12/29 03:10:18;;;;;;;5.90;2.30;;;;;;;3.78;100.00;100386.82;109232;1253;59821;-54
2023/12/29 03:12:46;;;;;;;4.20;2.50;;;;;;;3.78;100.00;100383.56;109264;1253;59042;-53
2023/12/29 03:15:15;;;;;;;4.70;1.70;;;;;;;3.78;100.00;100385.11;109160;1253;74773;-54
2023/12/29 03:17:43;;;;;;;5.10;1.80;;;;;;;3.77;100.00;100385.52;109403;1253;66922;-54
2023/12/29 03:20:11;;;;;;;4.10;2.30;;;;;;;3.76;100.00;100388.54;109309;1253;72705;-54
2023/12/29 03:22:38;;;;;;;6.80;2.40;;;;;;;3.75;100.00;100381.77;109147;1255;58959;-53
2023/12/29 03:25:06;;;;;;;5.10;2.40;;;;;;;3.74;100.00;100382.38;109300;1253;58905;-53
2023/12/29 03:27:34;;;;;;;4.30;2.20;;;;;;;3.73;100.00;100380.61;109400;1253;73869;-54
2023/12/29 03:30:02;;;;;;;5.20;1.90;;;;;;;3.71;100.00;100376.94;109360;1253;65723;-55
2023/12/29 03:32:30;;;;;;;5.90;2.70;;;;;;;3.71;100.00;100377.54;109274;1253;72863;-53
2023/12/29 03:34:57;;;;;;;5.10;2.40;;;;;;;3.68;100.00;100380.63;109246;1253;59674;-53
2023/12/29 03:37:26;;;;;;;4.10;2.10;;;;;;;3.67;100.00;100378.33;109084;1253;60083;-53
2023/12/29 03:39:54;;;;;;;4.90;1.90;;;;;;;3.68;100.00;100371.45;109402;1253;73430;-54
2023/12/29 03:42:21;;;;;;;5.90;2.20;;;;;;;3.65;100.00;100373.34;109349;1253;65672;-54
2023/12/29 03:44:49;;;;;;;6.40;2.40;;;;;;;3.63;100.00;100362.35;109263;1253;71075;-54
2023/12/29 03:47:16;;;;;;;5.90;2.20;;;;;;;3.63;100.00;100351.38;109242;1253;59639;-53
2023/12/29 03:49:44;;;;;;;6.00;1.90;;;;;;;3.63;100.00;100344.46;109310;1253;60102;-53
2023/12/29 03:52:12;;;;;;;3.90;1.90;;;;;;;3.64;100.00;100344.77;109344;1253;73543;-54
2023/12/29 03:54:40;;;;;;;5.10;2.90;;;;;;;3.66;100.00;100351.11;109418;1256;66492;-54
2023/12/29 03:57:07;;;;;;;5.10;2.10;;;;;;;3.66;100.00;100359.85;109225;1253;71497;-53
2023/12/29 03:59:39;;;;;;;6.40;2.00;;;;;;;3.67;100.00;100360.15;109235;1253;60952;-54
2023/12/29 04:02:07;;;;;;;5.00;2.30;;;;;;;3.65;100.00;100357.90;109369;1253;59124;-54
2023/12/29 04:04:38;;;;;;;6.20;2.30;;;;;;;3.62;100.00;100351.27;109303;1253;73256;-53
2023/12/29 04:07:06;;;;;;;7.10;2.60;;;;;;;3.59;100.00;100346.17;109230;1253;65695;-53
2023/12/29 04:09:34;;;;;;;4.00;1.60;;;;;;;3.58;100.00;100336.65;109076;1253;70829;-53
2023/12/29 04:12:02;;;;;;;6.70;1.80;;;;;;;3.57;100.00;100333.32;109393;1253;59419;-53
2023/12/29 04:14:29;;;;;;;4.60;2.30;;;;;;;3.58;100.00;100322.95;109351;1253;59484;-54
2023/12/29 04:16:57;;;;;;;5.90;2.30;;;;;;;3.58;100.00;100314.35;109357;1253;74868;-53
2023/12/29 04:19:25;;;;;;;5.60;2.30;;;;;;;3.59;100.00;100316.52;109350;1253;66941;-53
2023/12/29 04:21:53;;;;;;;5.30;2.10;;;;;;;3.60;100.00;100317.94;109383;1253;70752;-53
2023/12/29 04:24:21;;;;;;;5.00;1.70;;;;;;;3.61;100.00;100313.24;109330;1253;58968;-53
2023/12/29 04:26:48;;;;;;;3.50;1.70;;;;;;;3.62;100.00;100318.83;109219;1253;60067;-53
2023/12/29 04:29:16;;;;;;;5.00;2.10;;;;;;;3.63;100.00;100321.27;109184;1253;76755;-53
2023/12/29 04:31:43;;;;;;;5.60;1.90;;;;;;;3.65;100.00;100336.41;109357;1253;66147;-53
2023/12/29 04:34:13;;;;;;;4.20;2.10;;;;;;;3.67;100.00;100342.95;109151;1253;70727;-54
2023/12/29 04:36:41;;;;;;;5.10;2.40;;;;;;;3.68;100.00;100335.67;109292;1252;59230;-53
2023/12/29 04:39:11;;;;;;;4.60;1.60;;;;;;;3.69;100.00;100331.27;109351;1253;59013;-53
2023/12/29 04:41:39;;;;;;;4.40;1.90;;;;;;;3.68;100.00;100346.97;109356;1253;74822;-53
2023/12/29 04:44:06;;;;;;;7.90;2.30;;;;;;;3.71;100.00;100354.29;109160;1253;65521;-53
2023/12/29 04:46:34;;;;;;;6.50;2.40;;;;;;;3.72;100.00;100350.71;109374;1253;73395;-53
2023/12/29 04:49:02;;;;;;;4.60;2.40;;;;;;;3.72;100.00;100351.30;109229;1253;61003;-53
2023/12/29 04:51:30;;;;;;;5.20;2.20;;;;;;;3.71;100.00;100345.68;109146;1253;60121;-53
2023/12/29 04:53:57;;;;;;;5.30;2.10;;;;;;;3.73;100.00;100343.17;109358;1253;74707;-54
2023/12/29 04:56:25;;;;;;;6.10;2.40;;;;;;;3.72;100.00;100341.64;109385;1253;67446;-56
2023/12/29 04:58:53;;;;;;;5.60;2.20;;;;;;;3.71;100.00;100343.23;109174;1253;71427;-54
2023/12/29 05:01:20;;;;;;;6.90;3.10;;;;;;;3.70;100.00;100346.63;109351;1253;60951;-54
2023/12/29 05:03:48;;;;;;;7.50;2.40;;;;;;;3.69;100.00;100348.65;109423;1253;60185;-55
2023/12/29 05:06:15;;;;;;;5.90;2.30;;;;;;;3.65;100.00;100346.66;109403;1253;74678;-58
2023/12/29 05:08:43;;;;;;;5.20;2.20;;;;;;;3.61;100.00;100344.81;109358;1253;67039;-59
2023/12/29 05:11:11;;;;;;;7.00;3.10;;;;;;;3.61;100.00;100345.69;109233;1253;70964;-59
2023/12/29 05:13:39;;;;;;;5.00;2.60;;;;;;;3.58;100.00;100346.98;109364;1253;60949;-59
2023/12/29 05:16:06;;;;;;;6.50;2.90;;;;;;;3.55;100.00;100345.75;109368;1253;59305;-59
2023/12/29 05:18:34;;;;;;;5.80;2.60;;;;;;;3.53;100.00;100353.60;109148;1253;75596;-59
2023/12/29 05:21:02;;;;;;;6.50;3.80;;;;;;;3.51;100.00;100355.69;109335;1253;67452;-59
2023/12/29 05:23:29;;;;;;;6.50;3.00;;;;;;;3.49;100.00;100355.67;109355;1254;72729;-59
2023/12/29 05:25:57;;;;;;;6.70;2.80;;;;;;;3.48;100.00;100357.30;109284;1253;58977;-59
2023/12/29 05:28:24;;;;;;;6.20;3.60;;;;;;;3.48;100.00;100358.19;109276;1253;58968;-58
2023/12/29 05:30:52;;;;;;;8.20;3.50;;;;;;;3.46;100.00;100360.44;109309;1253;74660;-59
2023/12/29 05:33:20;;;;;;;6.70;2.80;;;;;;;3.46;100.00;100365.90;109181;1253;65880;-59
2023/12/29 05:35:48;;;;;;;5.80;2.60;;;;;;;3.48;100.00;100368.70;109362;1253;71821;-59
2023/12/29 05:38:15;;;;;;;7.90;3.20;;;;;;;3.48;100.00;100371.56;109389;1253;59315;-59
2023/12/29 05:40:43;;;;;;;9.10;3.10;;;;;;;3.49;100.00;100374.25;109201;1253;59306;-59
2023/12/29 05:43:10;;;;;;;11.80;4.40;;;;;;;3.49;100.00;100377.71;109334;1253;74769;-59
2023/12/29 05:45:38;;;;;;;12.00;5.20;;;;;;;3.50;100.00;100379.48;109366;1254;65410;-59
2023/12/29 05:48:06;;;;;;;16.10;5.60;;;;;;;3.53;100.00;100372.38;109388;1253;71446;-59
2023/12/29 05:50:34;;;;;;;13.50;5.50;;;;;;;3.55;100.00;100373.90;109323;1253;60917;-58
2023/12/29 05:53:02;;;;;;;14.30;5.70;;;;;;;3.57;100.00;100377.27;109380;1253;59094;-59
2023/12/29 05:55:29;;;;;;;10.90;5.40;;;;;;;3.61;100.00;100380.58;109386;1253;75291;-58
2023/12/29 05:57:57;;;;;;;10.00;4.50;;;;;;;3.63;100.00;100393.41;109239;1253;67032;-59
2023/12/29 06:00:25;;;;;;;8.30;4.10;;;;;;;3.66;100.00;100394.91;109352;1254;72754;-58
2023/12/29 06:02:53;;;;;;;8.60;4.40;;;;;;;3.69;100.00;100397.47;109155;1253;58985;-58
2023/12/29 06:05:21;;;;;;;6.60;3.40;;;;;;;3.71;100.00;100399.49;109205;1253;60817;-59
2023/12/29 06:07:49;;;;;;;11.10;4.60;;;;;;;3.73;100.00;100391.05;109357;1253;74778;-59
2023/12/29 06:10:16;;;;;;;10.10;4.20;;;;;;;3.75;100.00;100385.02;109313;1253;65759;-59
2023/12/29 06:12:44;;;;;;;9.00;5.60;;;;;;;3.77;100.00;100379.52;109379;1253;72738;-59
2023/12/29 06:15:13;;;;;;;7.60;4.70;;;;;;;3.79;100.00;100376.42;109103;1256;59676;-59
2023/12/29 06:17:43;;;;;;;8.40;4.40;;;;;;;3.81;100.00;100387.26;109171;1253;60102;-59
2023/12/29 06:20:11;;;;;;;9.50;3.90;;;;;;;3.83;100.00;100387.41;109384;1253;74757;-59
2023/12/29 06:22:40;;;;;;;9.50;3.70;;;;;;;3.85;100.00;100381.38;109209;1253;67112;-59
2023/12/29 06:25:10;;;;;;;7.10;4.10;;;;;;;3.87;100.00;100365.73;109360;1253;71430;-60
2023/12/29 06:27:39;;;;;;;5.60;3.70;;;;;;;3.90;100.00;100362.73;109393;1253;59287;-60
2023/12/29 06:30:08;;;;;;;9.60;4.70;;;;;;;3.90;100.00;100370.96;109294;1253;60099;-59
2023/12/29 06:32:35;;;;;;;7.80;4.30;;;;;;;3.92;100.00;100375.64;109373;1253;73819;-59
2023/12/29 06:35:04;;;;;;;10.10;5.10;;;;;;;3.95;100.00;100380.30;109135;1253;66995;-60
2023/12/29 06:37:32;;;;;;;14.30;5.10;;;;;;;4.00;100.00;100371.12;109363;1253;72717;-59
2023/12/29 06:40:00;;;;;;;7.70;4.50;;;;;;;4.04;100.00;100365.80;109341;1253;61718;-59
2023/12/29 06:42:28;;;;;;;6.70;4.30;;;;;;;4.05;100.00;100362.58;109221;1254;58912;-59
2023/12/29 06:44:55;;;;;;;9.80;5.30;;;;;;;4.07;100.00;100358.63;109370;1253;74694;-59
2023/12/29 06:47:23;;;;;;;10.10;5.30;;;;;;;4.10;100.00;100360.70;109327;1254;66950;-59
2023/12/29 06:49:51;;;;;;;8.90;5.10;;;;;;;4.14;100.00;100363.61;109340;1254;72744;-59
2023/12/29 06:52:18;;;;;;;9.10;5.20;;;;;;;4.19;100.00;100355.61;109362;1254;59645;-59
2023/12/29 06:54:46;;;;;;;8.30;4.80;;;;;;;4.25;100.00;100356.67;109166;1253;59469;-59
2023/12/29 06:57:15;;;;;;;9.80;5.70;;;;;;;4.27;100.00;100357.63;109161;1253;74711;-60
2023/12/29 06:59:42;;;;;;;9.10;4.70;;;;;;;4.32;100.00;100370.96;109112;1254;67646;-59
2023/12/29 07:02:10;;;;;;;11.20;5.40;;;;;;;4.36;100.00;100373.89;109178;1253;72835;-59
2023/12/29 07:04:41;;;;;;;9.00;5.60;;;;;;;4.39;100.00;100373.95;109326;1253;61759;-59
2023/12/29 07:07:09;;;;;;;10.60;5.70;;;;;;;4.44;100.00;100366.74;109348;1256;60061;-58
2023/12/29 07:09:40;;;;;;;10.20;5.60;;;;;;;4.50;100.00;100363.59;109219;1254;72468;-58
2023/12/29 07:12:08;;;;;;;10.70;6.20;;;;;;;4.55;100.00;100364.50;109281;1253;66116;-58
2023/12/29 07:14:35;;;;;;;9.40;5.50;;;;;;;4.59;100.00;100356.96;109372;1254;72697;-58
2023/12/29 07:17:03;;;;;;;9.80;5.80;;;;;;;4.62;100.00;100350.30;109370;1254;61722;-58
2023/12/29 07:19:36;;;;;;;11.10;6.60;;;;;;;4.66;100.00;100351.02;109354;1254;60105;-59
2023/12/29 07:22:05;;;;;;;12.30;6.20;;;;;;;4.69;100.00;100351.43;109360;1256;74761;-58
2023/12/29 07:24:35;;;;;;;11.90;6.70;;;;;;;4.70;100.00;100350.42;109153;1254;66952;-58
2023/12/29 07:27:03;;;;;;;11.80;7.30;;;;;;;4.71;100.00;100350.86;109373;1256;71505;-58
2023/12/29 07:29:31;;;;;;;10.00;6.60;;;;;;;4.75;100.00;100359.61;109308;1254;60535;-58
2023/12/29 07:31:59;;;;;;;10.90;7.50;;;;;;;4.75;100.00;100366.79;109392;1254;60107;-58
2023/12/29 07:34:27;;;;;;;11.20;7.20;;;;;;;4.76;100.00;100368.77;109164;1254;76518;-58
2023/12/29 07:36:55;;;;;;;12.60;7.00;;;;;;;4.78;100.00;100369.52;109198;1253;66995;-58
2023/12/29 07:39:23;;;;;;;14.10;7.40;;;;;;;4.79;100.00;100370.61;109342;1254;71396;-58
2023/12/29 07:41:51;;;;;;;11.00;6.50;;;;;;;4.81;100.00;100381.28;109349;1254;61801;-57
2023/12/29 07:44:19;;;;;;;10.40;6.50;;;;;;;4.82;100.00;100380.66;109353;1254;58894;-58
2023/12/29 07:46:47;;;;;;;10.90;7.10;;;;;;;4.83;100.00;100378.13;109412;1254;73454;-57
2023/12/29 07:49:14;;;;;;;11.80;7.10;;;;;;;4.86;100.00;100384.02;109404;1254;67065;-58
2023/12/29 07:51:44;;;;;;;13.00;7.60;;;;;;;4.89;100.00;100379.47;109376;1253;72400;-57
2023/12/29 07:54:12;;;;;;;12.20;7.20;;;;;;;4.92;100.00;100381.30;109343;1256;60138;-58
2023/12/29 07:56:39;;;;;;;13.90;7.30;;;;;;;4.94;100.00;100383.36;109186;1254;60272;-58
2023/12/29 07:59:07;;;;;;;13.80;7.80;;;;;;;4.94;100.00;100380.55;109235;1254;73729;-57
2023/12/29 08:01:36;;;;;;;14.10;7.40;;;;;;;4.96;100.00;100386.42;109341;1254;66997;-58
2023/12/29 08:04:04;;;;;;;13.70;8.20;;;;;;;4.96;100.00;100388.45;109369;1254;71412;-58
2023/12/29 08:06:32;;;;;;;12.50;7.90;;;;;;;4.96;100.00;100386.57;109368;1253;61819;-58
2023/12/29 08:09:00;;;;;;;13.40;7.50;;;;;;;4.95;100.00;100384.91;109403;1254;60078;-57
2023/12/29 08:11:27;;;;;;;14.50;8.60;;;;;;;4.94;100.00;100383.82;109149;1253;74202;-58
2023/12/29 08:13:55;;;;;;;12.60;7.10;;;;;;;4.94;100.00;100385.95;109338;1254;66883;-58
2023/12/29 08:16:22;;;;;;;13.70;8.50;;;;;;;4.93;100.00;100387.52;109382;1252;72720;-57
2023/12/29 08:18:50;;;;;;;13.20;8.30;;;;;;;4.95;100.00;100384.07;109376;1254;60099;-57
2023/12/29 08:21:19;;;;;;;12.90;7.90;;;;;;;4.94;100.00;100377.80;109431;1254;60062;-57
2023/12/29 08:23:47;;;;;;;16.30;9.40;;;;;;;4.94;100.00;100380.88;109346;1254;74771;-59
2023/12/29 08:26:14;;;;;;;16.60;8.70;;;;;;;4.94;100.00;100374.21;109401;1254;67551;-57
2023/12/29 08:28:42;;;;;;;13.40;8.30;;;;;;;4.92;100.00;100373.33;109380;1253;72742;-57
2023/12/29 08:31:10;;;;;;;14.40;9.00;;;;;;;4.92;100.00;100376.61;109374;1254;59474;-57
2023/12/29 08:33:38;;;;;;;13.90;8.70;;;;;;;4.93;100.00;100378.80;109418;1254;58955;-57
2023/12/29 08:36:06;;;;;;;14.30;8.50;;;;;;;4.94;100.00;100380.94;109149;1253;74666;-58
2023/12/29 08:38:34;;;;;;;15.10;8.30;;;;;;;4.93;100.00;100372.27;109410;1253;66925;-57
2023/12/29 08:41:02;;;;;;;11.80;7.70;;;;;;;4.93;100.00;100368.30;109379;1254;72838;-57
2023/12/29 08:43:30;;;;;;;14.80;8.20;;;;;;;4.93;100.00;100367.06;109173;1254;61822;-57
2023/12/29 08:45:57;;;;;;;15.80;9.30;;;;;;;4.96;100.00;100362.63;109158;1254;58894;-58
2023/12/29 08:48:25;;;;;;;14.50;8.10;;;;;;;5.00;100.00;100364.70;109372;1254;74666;-57
2023/12/29 08:50:53;;;;;;;16.20;9.20;;;;;;;5.04;100.00;100365.35;109392;1254;65639;-57
2023/12/29 08:53:23;;;;;;;13.30;9.10;;;;;;;5.08;100.00;100362.88;109360;1254;72722;-57
2023/12/29 08:55:51;;;;;;;14.00;9.20;;;;;;;5.11;100.00;100352.97;109343;1253;60491;-57
2023/12/29 08:58:18;;;;;;;16.50;9.40;;;;;;;5.12;100.00;100352.30;109414;1254;59537;-57
2023/12/29 09:00:46;;;;;;;15.10;9.50;;;;;;;5.13;100.00;100355.29;109402;1253;74764;-57
2023/12/29 09:03:14;;;;;;;16.10;9.00;;;;;;;5.15;100.00;100346.93;109376;1253;66306;-57
2023/12/29 09:05:42;;;;;;;15.00;10.10;;;;;;;5.17;100.00;100345.83;109241;1254;71141;-57
2023/12/29 09:08:10;;;;;;;16.20;10.00;;;;;;;5.20;100.00;100344.53;109359;1254;61690;-58
2023/12/29 09:10:38;;;;;;;16.50;9.90;;;;;;;5.23;100.00;100345.66;109253;1254;59043;-57
2023/12/29 09:13:06;;;;;;;14.20;9.00;;;;;;;5.24;100.00;100350.17;109428;1254;73295;-57
2023/12/29 09:15:34;;;;;;;14.30;9.20;;;;;;;5.26;100.00;100350.34;109400;1253;67168;-57
2023/12/29 09:18:02;;;;;;;14.80;9.60;;;;;;;5.27;100.00;100352.98;109164;1254;71459;-57
2023/12/29 09:20:30;;;;;;;16.00;10.20;;;;;;;5.29;100.00;100354.70;109370;1253;60075;-57
2023/12/29 09:22:59;;;;;;;17.00;9.40;;;;;;;5.28;100.00;100356.64;109448;1254;60087;-57
2023/12/29 09:25:27;;;;;;;16.60;9.10;;;;;;;5.28;100.00;100346.91;109358;1253;74727;-57
2023/12/29 09:27:55;;;;;;;14.90;8.80;;;;;;;5.28;100.00;100351.15;109350;1254;67402;-59
2023/12/29 09:30:23;;;;;;;14.30;8.70;;;;;;;5.29;100.00;100343.78;109380;1254;72728;-57
2023/12/29 09:32:51;;;;;;;13.60;8.60;;;;;;;5.31;100.00;100343.84;109307;1254;61872;-57
2023/12/29 09:35:20;;;;;;;26.40;9.50;;;;;;;5.32;100.00;100342.20;109445;1254;59120;-57
2023/12/29 09:37:51;;;;;;;16.10;9.50;;;;;;;5.34;100.00;100346.23;109212;1253;74766;-56
2023/12/29 09:40:19;;;;;;;14.50;8.80;;;;;;;5.36;100.00;100349.31;109306;1254;66963;-59
2023/12/29 09:42:46;;;;;;;13.50;9.00;;;;;;;5.36;100.00;100345.08;109225;1253;72717;-58
2023/12/29 09:45:14;;;;;;;14.50;9.10;;;;;;;5.35;100.00;100337.60;109371;1254;61810;-58
2023/12/29 09:47:42;;;;;;;14.50;9.30;;;;;;;5.34;100.00;100340.56;109043;1254;60087;-58
2023/12/29 09:50:11;;;;;;;15.40;9.20;;;;;;;5.32;100.00;100342.11;109376;1254;73669;-56
2023/12/29 09:52:40;;;;;;;14.20;8.60;;;;;;;5.31;100.00;100339.80;109247;1254;66670;-58
2023/12/29 09:55:10;;;;;;;13.20;8.10;;;;;;;5.32;100.00;100333.58;109372;1253;72763;-58
2023/12/29 09:57:38;;;;;;;18.20;10.00;;;;;;;5.30;100.00;100325.08;109176;1254;60300;-57
2023/12/29 10:00:07;;;;;;;17.10;9.50;;;;;;;5.30;100.00;100322.40;109362;1253;59044;-56
2023/12/29 10:02:38;;;;;;;12.70;8.60;;;;;;;5.29;100.00;100318.71;109056;1254;74741;-57
2023/12/29 10:05:08;;;;;;;15.60;9.40;;;;;;;5.30;100.00;100313.77;109231;1254;67077;-57
2023/12/29 10:07:38;;;;;;;14.00;9.80;;;;;;;5.30;100.00;100312.69;109428;1253;71326;-56
2023/12/29 10:10:06;;;;;;;15.70;9.00;;;;;;;5.31;100.00;100306.20;109149;1254;61789;-57
2023/12/29 10:12:34;;;;;;;13.70;9.00;;;;;;;5.32;100.00;100307.73;109219;1257;60069;-56
2023/12/29 10:15:12;;;;;;;15.30;9.70;;;;;;;5.31;100.00;100303.48;109262;1254;73421;-56
2023/12/29 10:17:56;;;;;;;15.40;9.60;;;;;;;5.30;100.00;100305.13;109149;1254;65957;-56
2023/12/29 10:20:38;;;;;;;16.90;9.90;;;;;;;5.29;100.00;100304.49;109246;1254;72742;-57
2023/12/29 10:23:07;;;;;;;16.00;9.10;;;;;;;5.31;100.00;100305.69;109273;1252;59678;-57
2023/12/29 10:25:36;;;;;;;12.90;9.00;;;;;;;5.33;100.00;100307.25;109383;1253;60321;-58
2023/12/29 10:28:04;;;;;;;13.60;9.40;;;;;;;5.32;100.00;100305.47;109231;1254;74713;-58
2023/12/29 10:30:32;;;;;;;14.00;10.30;;;;;;;5.30;100.00;100299.11;109438;1253;66975;-59
2023/12/29 10:33:03;;;;;;;15.60;10.50;;;;;;;5.28;100.00;100298.27;109241;1253;72738;-59
2023/12/29 10:35:34;;;;;;;15.00;9.90;;;;;;;5.27;100.00;100295.06;109019;1253;60819;-59
2023/12/29 10:38:12;;;;;;;16.60;10.10;;;;;;;5.28;100.00;100295.88;109181;1254;60139;-58
2023/12/29 10:40:40;;;;;;;15.70;9.50;;;;;;;5.27;100.00;100297.16;109433;1253;73444;-58
2023/12/29 10:43:09;;;;;;;15.20;9.20;;;;;;;5.28;100.00;100300.55;109377;1253;67050;-59
2023/12/29 10:45:37;;;;;;;14.70;9.50;;;;;;;5.27;100.00;100295.50;109367;1253;73159;-59
2023/12/29 10:48:05;;;;;;;13.00;8.70;;;;;;;5.27;100.00;100295.97;109330;1253;60123;-59
2023/12/29 10:50:44;;;;;;;14.10;9.90;;;;;;;5.27;100.00;100297.32;109199;1254;59475;-59
2023/12/29 10:53:13;;;;;;;15.10;9.30;;;;;;;5.27;100.00;100296.34;109392;1253;73523;-59
2023/12/29 10:55:41;;;;;;;12.90;8.80;;;;;;;5.27;100.00;100290.42;109374;1253;66922;-58
2023/12/29 10:58:09;;;;;;;14.10;9.10;;;;;;;5.27;100.00;100294.38;109388;1253;72693;-59
2023/12/29 11:00:37;;;;;;;13.60;8.80;;;;;;;5.27;100.00;100294.09;109345;1253;59141;-59
2023/12/29 11:03:06;;;;;;;14.00;9.30;;;;;;;5.26;100.00;100295.16;109355;1253;60547;-59
2023/12/29 11:05:34;;;;;;;13.60;9.90;;;;;;;5.28;100.00;100291.02;109225;1253;77157;-59
2023/12/29 11:08:03;;;;;;;13.30;9.20;;;;;;;5.31;100.00;100285.23;109056;1253;65852;-59
2023/12/29 11:10:31;;;;;;;13.10;9.30;;;;;;;5.34;100.00;100281.98;109000;1253;71443;-59
2023/12/29 11:12:59;;;;;;;14.80;10.30;;;;;;;5.37;100.00;100284.80;109144;1253;61760;-59
2023/12/29 11:15:27;;;;;;;17.50;10.30;;;;;;;5.40;100.00;100291.45;109182;1253;59272;-58
2023/12/29 11:17:54;;;;;;;16.20;11.10;;;;;;;5.42;100.00;100290.59;109365;1253;74731;-59
2023/12/29 11:20:22;;;;;;;16.60;10.60;;;;;;;5.41;100.00;100289.94;109053;1253;66205;-58